Pagrindinis puslapis
METAR-TAF:

METAR-TAF

Oro uostai :

Wasilla, Aliaska, Jungtinės Amerikos Valstijos

platuma: 61-34-19N, ilguma: 149-32-26W, Aukštis: 106 m

Dabartinis oras

Ataskaita buvo paskelbta 47 minutes, ne 02:56 UTC
Ramus vėjas
Temperatūra -12°C
Drėgmė 56%
Slėgis 1015 hPa
Matomumas: 16.1 km
Giedras dangus

METAR: PAWS 170256Z AUTO 00000KT 10SM CLR M12/M19 A2997 RMK AO2 SLP162 T11221189 58003 FZRANO

Laikas: 18:43 (03:43 UTC)


TAF: trūkstamas

Orai ataskaitas ir orų prognozės (METAR, TAF).

turimą stotys yra geltonos ir raudonos taškus žemėlapyje.

Perkelti pele per norėdami pamatyti stoties vardą.

Tada spustelėkite, norėdami matyti oro stebėjimo ir prognozės.

Norėdami pakeisti žemėlapį: spustelėkite ant žalios mygtukų su juodo kryžiaus žemyn,; žalią mygtuką su brūkšneliu, jei norite nutolinti; arba žalių rodyklių gretimoms žemėlapius.


METAR-TAF: